createdAt,value
2022-12-08T00:01:40.151Z,4.00
2022-12-08T00:04:07.237Z,4.00
2022-12-08T00:06:57.604Z,4.00
2022-12-08T00:09:24.365Z,4.00
2022-12-08T00:12:02.157Z,4.00
2022-12-08T00:14:32.793Z,4.00
2022-12-08T00:17:00.721Z,4.00
2022-12-08T00:19:27.988Z,4.00
2022-12-08T00:21:55.310Z,4.00
2022-12-08T00:24:23.937Z,3.90
2022-12-08T00:26:51.085Z,3.90
2022-12-08T00:29:18.479Z,3.80
2022-12-08T00:31:45.442Z,3.80
2022-12-08T00:34:13.934Z,3.80
2022-12-08T00:36:41.017Z,3.80
2022-12-08T00:39:07.770Z,3.80
2022-12-08T00:41:52.980Z,3.70
2022-12-08T00:44:19.975Z,3.70
2022-12-08T00:46:47.560Z,3.70
2022-12-08T00:49:15.643Z,3.60
2022-12-08T00:51:43.074Z,3.60
2022-12-08T00:54:10.839Z,3.60
2022-12-08T00:56:37.828Z,3.60
2022-12-08T00:59:05.945Z,3.60
2022-12-08T01:01:33.924Z,3.60
2022-12-08T01:04:10.064Z,3.70
2022-12-08T01:06:37.855Z,3.70
2022-12-08T01:09:06.668Z,3.70
2022-12-08T01:11:34.326Z,3.60
2022-12-08T01:14:01.237Z,3.60
2022-12-08T01:16:32.723Z,3.60
2022-12-08T01:19:00.032Z,3.60
2022-12-08T01:21:28.026Z,3.60
2022-12-08T01:23:55.568Z,3.50
2022-12-08T01:26:22.470Z,3.50
2022-12-08T01:28:49.277Z,3.50
2022-12-08T01:31:19.454Z,3.60
2022-12-08T01:33:47.255Z,3.60
2022-12-08T01:36:33.958Z,3.70
2022-12-08T01:39:01.761Z,3.70
2022-12-08T01:41:31.470Z,3.80
2022-12-08T01:44:01.263Z,3.80
2022-12-08T01:46:30.313Z,3.90
2022-12-08T01:49:08.905Z,3.90
2022-12-08T01:51:42.492Z,3.90
2022-12-08T01:54:11.350Z,4.00
2022-12-08T01:57:04.710Z,4.00
2022-12-08T01:59:35.097Z,4.00
2022-12-08T02:02:02.285Z,4.10
2022-12-08T02:04:28.989Z,4.10
2022-12-08T02:06:55.898Z,4.10
2022-12-08T02:09:22.785Z,4.10
2022-12-08T02:11:50.773Z,4.10
2022-12-08T02:14:17.645Z,4.10
2022-12-08T02:17:00.743Z,4.10
2022-12-08T02:19:49.278Z,4.10
2022-12-08T02:22:23.439Z,4.10
2022-12-08T02:25:10.824Z,4.10
2022-12-08T02:27:56.628Z,4.10
2022-12-08T02:30:25.200Z,4.10
2022-12-08T02:33:33.437Z,4.10
2022-12-08T02:36:27.904Z,4.10
2022-12-08T02:39:10.159Z,4.10
2022-12-08T02:41:45.896Z,4.10
2022-12-08T02:44:28.020Z,4.10
2022-12-08T02:46:59.216Z,4.10
2022-12-08T02:49:31.275Z,4.10
2022-12-08T02:52:13.276Z,4.10
2022-12-08T02:54:49.536Z,4.10
2022-12-08T02:57:42.203Z,4.20
2022-12-08T03:00:15.803Z,4.20
2022-12-08T03:02:56.881Z,4.20
2022-12-08T03:05:26.595Z,4.30
2022-12-08T03:08:15.353Z,4.30
2022-12-08T03:11:05.061Z,4.30
2022-12-08T03:13:41.568Z,4.30
2022-12-08T03:16:11.859Z,4.20
2022-12-08T03:18:47.488Z,4.10
2022-12-08T03:21:17.528Z,4.10
2022-12-08T03:23:46.513Z,4.10
2022-12-08T03:26:43.549Z,4.10
2022-12-08T03:29:11.014Z,4.10
2022-12-08T03:31:41.632Z,4.10
2022-12-08T03:34:10.852Z,4.10
2022-12-08T03:36:37.881Z,4.10
2022-12-08T03:39:04.645Z,4.00
2022-12-08T03:41:31.424Z,4.00
2022-12-08T03:43:59.535Z,4.00
2022-12-08T03:48:54.070Z,4.00
2022-12-08T03:51:21.616Z,4.00
2022-12-08T03:53:48.764Z,4.00
2022-12-08T03:56:31.531Z,4.00
2022-12-08T03:58:59.184Z,3.90
2022-12-08T04:01:27.435Z,3.90
2022-12-08T04:03:54.902Z,3.90
2022-12-08T04:06:22.049Z,3.90
2022-12-08T04:08:49.450Z,3.90
2022-12-08T04:11:16.789Z,3.80
2022-12-08T04:13:44.128Z,3.80
2022-12-08T04:16:20.415Z,3.90
2022-12-08T04:18:47.241Z,3.90
2022-12-08T04:21:14.240Z,3.90
2022-12-08T04:23:41.463Z,3.90
2022-12-08T04:26:08.823Z,3.90
2022-12-08T04:28:36.172Z,3.90
2022-12-08T04:31:03.409Z,3.90
2022-12-08T04:33:30.239Z,4.00
2022-12-08T04:35:56.985Z,4.00
2022-12-08T04:38:24.039Z,4.00
2022-12-08T04:40:50.796Z,3.90
2022-12-08T04:43:17.495Z,3.80
2022-12-08T04:45:44.213Z,3.80
2022-12-08T04:48:13.197Z,3.70
2022-12-08T04:50:41.837Z,3.70
2022-12-08T04:53:09.393Z,3.70
2022-12-08T04:55:40.379Z,3.70
2022-12-08T04:58:07.091Z,3.70
2022-12-08T05:00:34.140Z,3.70
2022-12-08T05:03:00.946Z,3.70
2022-12-08T05:05:27.696Z,3.70
2022-12-08T05:07:54.486Z,3.70
2022-12-08T05:10:21.326Z,3.80
2022-12-08T05:12:48.131Z,3.70
2022-12-08T05:15:14.931Z,3.80
2022-12-08T05:17:41.749Z,3.80
2022-12-08T05:20:09.032Z,3.80
2022-12-08T05:22:35.851Z,3.90
2022-12-08T05:25:02.660Z,3.90
2022-12-08T05:27:29.496Z,3.90
2022-12-08T05:29:56.207Z,4.00
2022-12-08T05:32:23.060Z,4.00
2022-12-08T05:34:49.747Z,4.00
2022-12-08T05:37:16.493Z,4.10
2022-12-08T05:39:43.268Z,4.10
2022-12-08T05:42:10.020Z,4.00
2022-12-08T05:44:36.805Z,3.90
2022-12-08T05:47:03.681Z,3.90
2022-12-08T05:49:30.373Z,3.80
2022-12-08T05:51:57.172Z,3.80
2022-12-08T05:54:24.188Z,3.80
2022-12-08T05:56:50.960Z,3.70
2022-12-08T05:59:17.700Z,3.70
2022-12-08T06:01:44.857Z,3.70
2022-12-08T06:04:11.672Z,3.60
2022-12-08T06:06:38.589Z,3.50
2022-12-08T06:09:06.183Z,3.50
2022-12-08T06:11:34.680Z,3.40
2022-12-08T06:14:02.198Z,3.20
2022-12-08T06:16:29.206Z,3.10
2022-12-08T06:18:56.622Z,3.00
2022-12-08T06:21:23.387Z,2.80
2022-12-08T06:23:52.522Z,2.70
2022-12-08T06:26:19.617Z,2.60
2022-12-08T06:28:46.352Z,2.50
2022-12-08T06:31:25.429Z,2.40
2022-12-08T06:33:53.307Z,2.40
2022-12-08T06:36:22.135Z,2.40
2022-12-08T06:38:49.053Z,2.40
2022-12-08T06:41:16.797Z,2.40
2022-12-08T06:43:43.983Z,2.50
2022-12-08T06:46:13.931Z,2.50
2022-12-08T06:48:40.771Z,2.50
2022-12-08T06:51:17.020Z,2.50
2022-12-08T06:53:45.268Z,2.50
2022-12-08T06:56:13.231Z,2.50
2022-12-08T06:58:39.975Z,2.50
2022-12-08T07:01:12.408Z,2.50
2022-12-08T07:03:40.058Z,2.40
2022-12-08T07:06:07.130Z,2.40
2022-12-08T07:08:35.204Z,2.40
2022-12-08T07:11:15.273Z,2.40
2022-12-08T07:13:44.972Z,2.40
2022-12-08T07:16:12.758Z,2.40
2022-12-08T07:18:39.821Z,2.50
2022-12-08T07:21:08.535Z,2.50
2022-12-08T07:23:36.267Z,2.50
2022-12-08T07:26:05.348Z,2.50
2022-12-08T07:28:37.153Z,2.50
2022-12-08T07:31:04.695Z,2.50
2022-12-08T07:33:32.738Z,2.60
2022-12-08T07:36:02.142Z,2.60
2022-12-08T07:38:29.435Z,2.60
2022-12-08T07:40:56.477Z,2.70
2022-12-08T07:43:23.764Z,2.70
2022-12-08T07:45:51.125Z,2.80
2022-12-08T07:48:18.417Z,2.80
2022-12-08T07:50:45.724Z,2.80
2022-12-08T07:53:12.502Z,2.90
2022-12-08T07:55:40.938Z,2.90
2022-12-08T07:58:07.817Z,3.00
2022-12-08T08:00:35.028Z,3.00
2022-12-08T08:03:02.799Z,3.00
2022-12-08T08:05:29.639Z,2.90
2022-12-08T08:07:56.386Z,2.90
2022-12-08T08:10:23.289Z,2.90
2022-12-08T08:12:50.030Z,2.90
2022-12-08T08:15:17.867Z,3.00
2022-12-08T08:17:44.796Z,3.00
2022-12-08T08:20:12.025Z,3.10
2022-12-08T08:22:38.738Z,3.10
2022-12-08T08:25:05.757Z,3.10
2022-12-08T08:27:32.508Z,3.20
2022-12-08T08:29:59.289Z,3.20
2022-12-08T08:32:25.996Z,3.30
2022-12-08T08:34:52.696Z,3.40
2022-12-08T08:37:19.474Z,3.40
2022-12-08T08:39:46.229Z,3.50
2022-12-08T08:42:12.971Z,3.50
2022-12-08T08:44:39.688Z,3.50
2022-12-08T08:47:06.883Z,3.50
2022-12-08T08:49:33.603Z,3.50
2022-12-08T08:52:00.261Z,3.50
2022-12-08T08:54:28.996Z,3.50
2022-12-08T08:56:57.056Z,3.40
2022-12-08T08:59:24.149Z,3.40
2022-12-08T09:01:50.944Z,3.40
2022-12-08T09:04:17.983Z,3.40
2022-12-08T09:06:45.237Z,3.40
2022-12-08T09:09:12.289Z,3.50
2022-12-08T09:11:39.051Z,3.60
2022-12-08T09:14:05.939Z,3.60
2022-12-08T09:16:36.223Z,3.70
2022-12-08T09:19:05.644Z,3.70
2022-12-08T09:21:32.422Z,3.70
2022-12-08T09:23:59.888Z,3.80
2022-12-08T09:26:27.893Z,3.80
2022-12-08T09:28:56.397Z,3.90
2022-12-08T09:31:24.186Z,3.90
2022-12-08T09:33:54.285Z,3.90
2022-12-08T09:36:21.854Z,4.00
2022-12-08T09:38:50.225Z,4.00
2022-12-08T09:41:29.350Z,4.10
2022-12-08T09:44:21.384Z,4.10
2022-12-08T09:46:51.867Z,4.10
2022-12-08T09:49:22.561Z,4.20
2022-12-08T09:51:49.692Z,4.20
2022-12-08T09:54:21.434Z,4.20
2022-12-08T09:56:49.458Z,4.20
2022-12-08T09:59:32.441Z,4.20
2022-12-08T10:02:06.793Z,4.20
2022-12-08T10:04:38.335Z,4.20
2022-12-08T10:07:36.439Z,4.30
2022-12-08T10:10:33.067Z,4.30
2022-12-08T10:13:38.386Z,4.40
2022-12-08T10:16:33.750Z,4.50
2022-12-08T10:19:21.160Z,4.50
2022-12-08T10:21:48.872Z,4.50
2022-12-08T10:24:42.210Z,4.50
2022-12-08T10:27:12.664Z,4.40
2022-12-08T10:29:40.615Z,4.30
2022-12-08T10:32:24.610Z,4.10
2022-12-08T10:35:12.952Z,4.00
2022-12-08T10:37:40.242Z,3.90
2022-12-08T10:40:15.650Z,3.80
2022-12-08T10:42:52.532Z,3.70
2022-12-08T10:45:32.344Z,3.70
2022-12-08T10:48:02.812Z,3.70
2022-12-08T10:50:58.635Z,3.80
2022-12-08T10:53:29.336Z,4.00
2022-12-08T10:56:02.280Z,4.10
2022-12-08T10:58:33.811Z,4.30
2022-12-08T11:01:09.855Z,4.40
2022-12-08T11:03:39.617Z,4.50
2022-12-08T11:06:19.802Z,4.60
2022-12-08T11:08:51.954Z,4.60
2022-12-08T11:11:24.342Z,4.70
2022-12-08T11:13:54.401Z,4.80
2022-12-08T11:16:23.594Z,4.90
2022-12-08T11:18:57.075Z,5.00
2022-12-08T11:21:34.674Z,5.10
2022-12-08T11:24:18.104Z,5.20
2022-12-08T11:26:54.907Z,5.20
2022-12-08T11:29:22.129Z,5.20
2022-12-08T11:32:07.431Z,5.20
2022-12-08T11:34:54.519Z,5.20
2022-12-08T11:37:38.948Z,5.20
2022-12-08T11:40:25.984Z,5.20
2022-12-08T11:43:07.931Z,5.30
2022-12-08T11:45:36.117Z,5.30
2022-12-08T11:48:39.035Z,5.40
2022-12-08T11:51:13.851Z,5.40
2022-12-08T11:54:16.987Z,5.50
2022-12-08T11:56:59.842Z,5.50
2022-12-08T11:59:38.059Z,5.50
2022-12-08T12:02:06.270Z,5.60
2022-12-08T12:04:38.567Z,5.60
2022-12-08T12:07:08.304Z,5.60
2022-12-08T12:09:52.519Z,5.60
2022-12-08T12:12:46.554Z,5.50
2022-12-08T12:15:28.506Z,5.50
2022-12-08T12:18:04.742Z,5.40
2022-12-08T12:20:50.279Z,5.40
2022-12-08T12:23:47.948Z,5.20
2022-12-08T12:26:26.319Z,5.00
2022-12-08T12:29:17.504Z,4.80
2022-12-08T12:31:49.885Z,4.80
2022-12-08T12:34:26.783Z,4.70
2022-12-08T12:37:08.913Z,4.70
2022-12-08T12:39:52.722Z,4.80
2022-12-08T12:42:54.928Z,4.70
2022-12-08T12:45:21.718Z,4.70
2022-12-08T12:47:57.867Z,4.70
2022-12-08T12:50:33.942Z,4.70
2022-12-08T12:53:09.132Z,4.60
2022-12-08T12:56:00.050Z,4.60
2022-12-08T12:58:29.767Z,4.60
2022-12-08T13:01:08.666Z,4.50
2022-12-08T13:03:36.451Z,4.50
2022-12-08T13:06:03.801Z,4.40
2022-12-08T13:08:31.376Z,4.30
2022-12-08T13:11:00.912Z,4.10
2022-12-08T13:13:28.359Z,4.10
2022-12-08T13:16:18.870Z,4.10
2022-12-08T13:18:51.133Z,4.10
2022-12-08T13:21:21.574Z,4.20
2022-12-08T13:23:51.729Z,4.10
2022-12-08T13:26:24.639Z,4.10
2022-12-08T13:29:07.067Z,4.00
2022-12-08T13:31:36.463Z,4.00
2022-12-08T13:34:12.993Z,4.00
2022-12-08T13:36:47.688Z,3.90
2022-12-08T13:39:39.987Z,3.90
2022-12-08T13:42:36.279Z,3.90
2022-12-08T13:45:36.228Z,4.00
2022-12-08T13:57:30.434Z,4.40
2022-12-08T14:00:06.108Z,4.60
2022-12-08T14:02:43.804Z,4.70
2022-12-08T14:05:19.501Z,4.70
2022-12-08T14:07:49.856Z,4.80
2022-12-08T14:10:22.134Z,4.80
2022-12-08T14:12:56.370Z,4.70
2022-12-08T14:15:25.190Z,4.70
2022-12-08T14:17:57.360Z,4.50
2022-12-08T14:20:42.340Z,4.40
2022-12-08T14:23:18.971Z,4.20
2022-12-08T14:25:48.303Z,4.10
2022-12-08T14:28:15.145Z,4.00
2022-12-08T14:30:42.990Z,4.00
2022-12-08T14:33:15.173Z,3.90
2022-12-08T14:35:42.218Z,3.90
2022-12-08T14:38:14.613Z,3.80
2022-12-08T14:41:02.660Z,3.80
2022-12-08T14:43:31.016Z,3.70
2022-12-08T14:46:01.697Z,3.70
2022-12-08T14:48:28.485Z,3.60
2022-12-08T14:51:06.077Z,3.60
2022-12-08T14:53:40.984Z,3.60
2022-12-08T14:56:37.038Z,3.60
2022-12-08T14:59:20.953Z,3.50
2022-12-08T15:01:49.603Z,3.50
2022-12-08T15:04:25.402Z,3.40
2022-12-08T15:06:58.006Z,3.30
2022-12-08T15:09:32.616Z,3.20
2022-12-08T15:12:07.492Z,3.10
2022-12-08T15:14:37.131Z,3.00
2022-12-08T15:17:24.559Z,2.90
2022-12-08T15:20:00.133Z,2.80
2022-12-08T15:22:27.593Z,2.70
2022-12-08T15:24:54.419Z,2.70
2022-12-08T15:27:23.964Z,2.60
2022-12-08T15:29:50.712Z,2.70
2022-12-08T15:32:20.761Z,2.80
2022-12-08T15:34:47.850Z,2.80
2022-12-08T15:37:26.339Z,2.80
2022-12-08T15:39:53.520Z,2.70
2022-12-08T15:42:20.250Z,2.70
2022-12-08T15:44:47.082Z,2.60
2022-12-08T15:47:16.678Z,2.60
2022-12-08T15:49:48.136Z,2.60
2022-12-08T15:52:18.617Z,2.50
2022-12-08T15:54:45.746Z,2.50
2022-12-08T15:58:04.033Z,2.50
2022-12-08T16:03:59.752Z,2.20
2022-12-08T16:09:18.252Z,1.90
2022-12-08T16:12:07.588Z,1.80
2022-12-08T16:17:23.942Z,1.60
2022-12-08T16:19:50.631Z,1.50
2022-12-08T16:25:18.396Z,1.30
2022-12-08T16:28:23.094Z,1.20
2022-12-08T16:30:34.383Z,1.20
2022-12-08T16:33:01.093Z,1.10
2022-12-08T16:35:27.963Z,1.00
2022-12-08T16:37:54.792Z,1.00
2022-12-08T16:40:21.855Z,0.90
2022-12-08T16:42:50.195Z,0.90
2022-12-08T16:45:20.130Z,0.80
2022-12-08T16:47:53.434Z,0.80
2022-12-08T16:50:24.571Z,0.80
2022-12-08T16:52:58.010Z,0.80
2022-12-08T16:55:26.110Z,0.70
2022-12-08T16:57:53.052Z,0.70
2022-12-08T17:00:25.369Z,0.80
2022-12-08T17:02:53.715Z,0.80
2022-12-08T17:05:23.213Z,0.90
2022-12-08T17:07:51.350Z,1.00
2022-12-08T17:10:21.376Z,1.10
2022-12-08T17:12:48.409Z,1.20
2022-12-08T17:15:18.729Z,1.30
2022-12-08T17:17:45.547Z,1.40
2022-12-08T17:20:18.778Z,1.40
2022-12-08T17:22:45.981Z,1.50
2022-12-08T17:25:12.880Z,1.60
2022-12-08T17:27:40.396Z,1.60
2022-12-08T17:30:11.627Z,1.70
2022-12-08T17:32:39.052Z,1.70
2022-12-08T17:35:07.081Z,1.70
2022-12-08T17:37:34.601Z,1.80
2022-12-08T17:40:01.633Z,1.80
2022-12-08T17:42:28.412Z,1.80
2022-12-08T17:44:55.231Z,1.90
2022-12-08T17:47:22.308Z,1.90
2022-12-08T17:49:49.109Z,1.90
2022-12-08T17:52:15.863Z,2.00
2022-12-08T17:54:42.610Z,2.00
2022-12-08T17:57:09.399Z,2.00
2022-12-08T17:59:36.123Z,2.00
2022-12-08T18:02:04.324Z,2.10
2022-12-08T18:04:31.470Z,2.10
2022-12-08T18:07:00.327Z,2.20
2022-12-08T18:09:27.293Z,2.20
2022-12-08T18:11:54.127Z,2.20
2022-12-08T18:14:20.842Z,2.20
2022-12-08T18:16:47.758Z,2.20
2022-12-08T18:19:15.934Z,2.20
2022-12-08T18:21:43.417Z,2.30
2022-12-08T18:24:17.953Z,2.30
2022-12-08T18:26:44.765Z,2.30
2022-12-08T18:29:11.521Z,2.30
2022-12-08T18:31:38.271Z,2.30
2022-12-08T18:34:05.297Z,2.30
2022-12-08T18:36:32.285Z,2.30
2022-12-08T18:38:59.140Z,2.40
2022-12-08T18:41:26.558Z,2.40
2022-12-08T18:43:55.325Z,2.40
2022-12-08T18:46:22.782Z,2.40
2022-12-08T18:48:51.616Z,2.40
2022-12-08T18:51:20.732Z,2.40
2022-12-08T18:53:47.843Z,2.40
2022-12-08T18:56:29.540Z,2.40
2022-12-08T18:59:03.189Z,2.40
2022-12-08T19:01:34.868Z,2.40
2022-12-08T19:04:27.306Z,2.50
2022-12-08T19:06:51.787Z,2.50
2022-12-08T19:09:18.999Z,2.50
2022-12-08T19:11:45.746Z,2.60
2022-12-08T19:14:12.494Z,2.60
2022-12-08T19:16:39.149Z,2.60
2022-12-08T19:19:06.000Z,2.60
2022-12-08T19:21:33.416Z,2.70
2022-12-08T19:24:00.410Z,2.70
2022-12-08T19:26:28.250Z,2.70
2022-12-08T19:28:55.143Z,2.70
2022-12-08T19:31:22.124Z,2.70
2022-12-08T19:33:49.111Z,2.80
2022-12-08T19:36:18.845Z,2.80
2022-12-08T19:39:04.251Z,2.80
2022-12-08T19:41:49.969Z,2.80
2022-12-08T19:44:44.778Z,2.80
2022-12-08T19:47:11.930Z,2.90
2022-12-08T19:49:38.848Z,2.90
2022-12-08T19:52:06.221Z,2.90
2022-12-08T19:54:32.988Z,2.80
2022-12-08T19:56:59.809Z,2.70
2022-12-08T19:59:26.545Z,2.70
2022-12-08T20:01:59.789Z,2.80
2022-12-08T20:04:27.507Z,2.70
2022-12-08T20:06:56.146Z,2.70
2022-12-08T20:09:23.725Z,2.60
2022-12-08T20:11:54.867Z,2.50
2022-12-08T20:14:22.971Z,2.40
2022-12-08T20:16:50.591Z,2.30
2022-12-08T20:19:17.456Z,2.10
2022-12-08T20:21:44.177Z,2.00
2022-12-08T20:24:11.017Z,1.80
2022-12-08T20:26:37.893Z,1.70
2022-12-08T20:29:04.836Z,1.60
2022-12-08T20:31:33.058Z,1.40
2022-12-08T20:34:00.876Z,1.30
2022-12-08T20:36:28.046Z,1.20
2022-12-08T20:38:56.082Z,1.10
2022-12-08T20:41:23.822Z,1.10
2022-12-08T20:43:51.862Z,1.10
2022-12-08T20:46:19.641Z,1.10
2022-12-08T20:48:46.636Z,1.20
2022-12-08T20:51:15.593Z,1.30
2022-12-08T20:53:42.774Z,1.40
2022-12-08T20:56:14.907Z,1.40
2022-12-08T20:58:42.314Z,1.50
2022-12-08T21:01:14.850Z,1.60
2022-12-08T21:03:42.511Z,1.70
2022-12-08T21:06:09.894Z,1.80
2022-12-08T21:08:37.109Z,1.80
2022-12-08T21:11:05.291Z,1.80
2022-12-08T21:13:32.428Z,1.80
2022-12-08T21:15:59.382Z,1.90
2022-12-08T21:18:26.345Z,2.00
2022-12-08T21:21:02.308Z,2.00
2022-12-08T21:23:29.247Z,2.10
2022-12-08T21:25:56.190Z,2.10
2022-12-08T21:28:23.130Z,2.10
2022-12-08T21:30:49.919Z,2.10
2022-12-08T21:33:17.898Z,2.20
2022-12-08T21:35:44.958Z,2.20
2022-12-08T21:38:11.779Z,2.20
2022-12-08T21:40:38.694Z,2.20
2022-12-08T21:43:05.446Z,2.20
2022-12-08T21:45:34.344Z,2.20
2022-12-08T21:48:05.704Z,2.20
2022-12-08T21:50:37.384Z,2.20
2022-12-08T21:53:04.177Z,2.20
2022-12-08T21:55:31.037Z,2.20
2022-12-08T21:58:00.865Z,2.30
2022-12-08T22:00:28.114Z,2.30
2022-12-08T22:02:55.219Z,2.30
2022-12-08T22:05:22.122Z,2.30
2022-12-08T22:07:48.948Z,2.30
2022-12-08T22:10:16.444Z,2.30
2022-12-08T22:12:43.584Z,2.30
2022-12-08T22:15:11.400Z,2.30
2022-12-08T22:17:39.967Z,2.30
2022-12-08T22:20:10.338Z,2.20
2022-12-08T22:22:37.419Z,2.10
2022-12-08T22:25:05.585Z,2.10
2022-12-08T22:27:35.433Z,2.00
2022-12-08T22:30:02.604Z,2.00
2022-12-08T22:32:29.591Z,2.00
2022-12-08T22:34:56.583Z,2.00
2022-12-08T22:37:23.287Z,2.00
2022-12-08T22:39:50.175Z,2.00
2022-12-08T22:42:17.134Z,2.00
2022-12-08T22:44:43.983Z,2.00
2022-12-08T22:47:10.914Z,2.00
2022-12-08T22:49:37.743Z,1.90
2022-12-08T22:52:04.883Z,1.90
2022-12-08T22:54:32.034Z,1.90
2022-12-08T22:56:58.844Z,1.90
2022-12-08T22:59:25.615Z,1.90
2022-12-08T23:01:54.010Z,1.90
2022-12-08T23:04:20.918Z,1.90
2022-12-08T23:06:48.240Z,1.90
2022-12-08T23:09:15.434Z,2.00
2022-12-08T23:11:43.125Z,2.00
2022-12-08T23:14:10.002Z,2.00
2022-12-08T23:16:36.941Z,2.00
2022-12-08T23:19:04.247Z,2.00
2022-12-08T23:21:31.260Z,2.00
2022-12-08T23:24:01.112Z,2.00
2022-12-08T23:26:30.383Z,2.00
2022-12-08T23:28:57.797Z,2.00
2022-12-08T23:31:25.595Z,2.00
2022-12-08T23:33:52.942Z,2.00
2022-12-08T23:36:21.646Z,2.10
2022-12-08T23:38:49.017Z,2.10
2022-12-08T23:41:16.674Z,2.10
2022-12-08T23:43:48.866Z,2.20
2022-12-08T23:46:17.328Z,2.20
2022-12-08T23:48:44.656Z,2.20
2022-12-08T23:51:12.639Z,2.20
2022-12-08T23:53:39.739Z,2.20
2022-12-08T23:56:09.304Z,2.10
2022-12-08T23:58:36.781Z,2.10
